createdAt,value
2024-01-22T00:00:48.974Z,86.57
2024-01-22T00:03:15.770Z,86.81
2024-01-22T00:05:42.693Z,87.70
2024-01-22T00:08:10.718Z,85.73
2024-01-22T00:10:37.370Z,86.36
2024-01-22T00:13:04.324Z,86.74
2024-01-22T00:15:31.045Z,86.59
2024-01-22T00:17:57.780Z,87.17
2024-01-22T00:20:24.434Z,86.53
2024-01-22T00:22:52.363Z,87.31
2024-01-22T00:25:20.369Z,86.78
2024-01-22T00:27:46.968Z,85.81
2024-01-22T00:30:14.228Z,86.46
2024-01-22T00:32:41.085Z,87.05
2024-01-22T00:35:09.110Z,86.53
2024-01-22T00:37:37.058Z,85.65
2024-01-22T00:40:04.078Z,85.07
2024-01-22T00:42:30.686Z,86.74
2024-01-22T00:44:57.364Z,86.53
2024-01-22T00:47:25.359Z,86.89
2024-01-22T00:49:51.997Z,86.65
2024-01-22T00:52:18.674Z,86.07
2024-01-22T00:54:45.286Z,87.56
2024-01-22T00:57:12.242Z,88.08
2024-01-22T00:59:39.166Z,87.20
2024-01-22T01:02:05.906Z,86.97
2024-01-22T01:04:32.547Z,86.71
2024-01-22T01:06:59.194Z,85.01
2024-01-22T01:09:25.905Z,84.60
2024-01-22T01:11:54.049Z,84.95
2024-01-22T01:14:20.758Z,84.74
2024-01-22T01:16:47.432Z,83.49
2024-01-22T01:19:14.602Z,82.75
2024-01-22T01:21:42.637Z,83.66
2024-01-22T01:24:09.913Z,82.60
2024-01-22T01:26:44.784Z,82.11
2024-01-22T01:29:11.699Z,82.11
2024-01-22T01:31:38.532Z,82.15
2024-01-22T01:34:06.165Z,81.97
2024-01-22T01:36:34.284Z,81.84
2024-01-22T01:39:00.933Z,81.69
2024-01-22T01:41:27.604Z,81.58
2024-01-22T01:43:54.309Z,81.17
2024-01-22T01:46:20.924Z,81.17
2024-01-22T01:48:47.983Z,81.05
2024-01-22T01:51:16.264Z,81.40
2024-01-22T01:53:45.212Z,81.33
2024-01-22T01:56:13.629Z,81.10
2024-01-22T01:58:40.328Z,81.13
2024-01-22T02:01:07.395Z,81.89
2024-01-22T02:03:34.295Z,81.30
2024-01-22T02:06:02.799Z,82.03
2024-01-22T02:08:29.724Z,81.43
2024-01-22T02:10:56.421Z,81.57
2024-01-22T02:13:23.200Z,81.49
2024-01-22T02:15:49.836Z,81.56
2024-01-22T02:18:16.700Z,82.83
2024-01-22T02:20:43.512Z,82.94
2024-01-22T02:23:10.193Z,81.44
2024-01-22T02:25:37.111Z,81.59
2024-01-22T02:28:04.074Z,82.43
2024-01-22T02:30:31.996Z,82.57
2024-01-22T02:32:58.742Z,82.83
2024-01-22T02:35:25.405Z,83.05
2024-01-22T02:37:52.338Z,83.41
2024-01-22T02:40:20.291Z,82.08
2024-01-22T02:42:48.474Z,81.94
2024-01-22T02:45:15.378Z,81.14
2024-01-22T02:47:43.538Z,81.30
2024-01-22T02:50:10.438Z,81.21
2024-01-22T02:52:37.608Z,80.75
2024-01-22T02:55:04.985Z,80.85
2024-01-22T02:57:31.627Z,79.63
2024-01-22T02:59:58.346Z,80.17
2024-01-22T03:02:25.043Z,79.64
2024-01-22T03:04:51.901Z,79.62
2024-01-22T03:07:19.872Z,79.12
2024-01-22T03:09:46.581Z,79.01
2024-01-22T03:12:13.513Z,79.05
2024-01-22T03:14:40.280Z,78.12
2024-01-22T03:17:06.946Z,78.49
2024-01-22T03:19:33.608Z,78.09
2024-01-22T03:22:00.270Z,77.68
2024-01-22T03:24:28.845Z,77.70
2024-01-22T03:26:55.927Z,77.75
2024-01-22T03:29:22.577Z,78.16
2024-01-22T03:31:49.194Z,77.79
2024-01-22T03:34:17.168Z,77.73
2024-01-22T03:36:43.869Z,77.64
2024-01-22T03:39:13.758Z,78.05
2024-01-22T03:41:40.708Z,78.22
2024-01-22T03:44:07.423Z,77.64
2024-01-22T03:46:34.179Z,77.45
2024-01-22T03:49:01.526Z,76.78
2024-01-22T03:51:28.384Z,76.91
2024-01-22T03:53:55.180Z,77.42
2024-01-22T03:56:22.174Z,76.51
2024-01-22T03:58:48.867Z,76.11
2024-01-22T04:01:24.808Z,76.57
2024-01-22T04:03:52.034Z,76.52
2024-01-22T04:06:20.158Z,75.50
2024-01-22T04:08:47.037Z,75.78
2024-01-22T04:11:15.215Z,75.81
2024-01-22T04:13:41.874Z,75.94
2024-01-22T04:16:12.968Z,75.58
2024-01-22T04:18:41.720Z,75.24
2024-01-22T04:21:09.434Z,75.45
2024-01-22T04:23:37.327Z,75.52
2024-01-22T04:26:05.591Z,75.22
2024-01-22T04:28:32.463Z,74.87
2024-01-22T04:30:59.040Z,75.24
2024-01-22T04:33:25.874Z,74.67
2024-01-22T04:35:52.708Z,75.02
2024-01-22T04:38:19.506Z,75.02
2024-01-22T04:40:47.500Z,74.91
2024-01-22T04:43:16.764Z,75.06
2024-01-22T04:45:43.496Z,74.59
2024-01-22T04:48:11.124Z,75.12
2024-01-22T04:50:37.886Z,74.52
2024-01-22T04:53:05.842Z,74.80
2024-01-22T04:55:34.493Z,74.68
2024-01-22T04:58:03.351Z,74.36
2024-01-22T05:00:30.329Z,74.44
2024-01-22T05:02:57.666Z,74.36
2024-01-22T05:05:24.645Z,74.39
2024-01-22T05:07:51.332Z,74.32
2024-01-22T05:10:18.007Z,74.47
2024-01-22T05:12:44.686Z,73.96
2024-01-22T05:15:13.186Z,73.77
2024-01-22T05:17:40.682Z,74.04
2024-01-22T05:20:08.328Z,74.01
2024-01-22T05:22:36.097Z,73.33
2024-01-22T05:25:03.226Z,72.58
2024-01-22T05:27:31.488Z,72.55
2024-01-22T05:29:58.196Z,72.75
2024-01-22T05:32:25.079Z,72.35
2024-01-22T05:34:52.154Z,72.78
2024-01-22T05:37:18.863Z,72.72
2024-01-22T05:39:45.488Z,72.69
2024-01-22T05:42:12.277Z,72.62
2024-01-22T05:44:39.014Z,72.62
2024-01-22T05:47:05.812Z,72.73
2024-01-22T05:49:32.576Z,72.81
2024-01-22T05:51:59.841Z,72.71
2024-01-22T05:54:26.507Z,72.58
2024-01-22T05:56:55.248Z,72.68
2024-01-22T05:59:22.079Z,72.43
2024-01-22T06:01:48.745Z,72.64
2024-01-22T06:04:17.614Z,72.96
2024-01-22T06:06:45.744Z,72.78
2024-01-22T06:09:12.436Z,72.35
2024-01-22T06:11:39.206Z,73.27
2024-01-22T06:14:05.918Z,72.08
2024-01-22T06:16:32.609Z,72.04
2024-01-22T06:19:00.058Z,72.37
2024-01-22T06:21:29.022Z,71.93
2024-01-22T06:23:55.793Z,73.02
2024-01-22T06:26:23.498Z,73.05
2024-01-22T06:28:50.286Z,73.42
2024-01-22T06:31:17.175Z,72.92
2024-01-22T06:33:44.403Z,72.23
2024-01-22T06:36:11.828Z,72.98
2024-01-22T06:38:38.571Z,71.99
2024-01-22T06:41:10.764Z,73.07
2024-01-22T06:43:37.362Z,72.19
2024-01-22T06:46:04.282Z,71.63
2024-01-22T06:48:30.927Z,72.88
2024-01-22T06:50:57.851Z,71.94
2024-01-22T06:53:24.489Z,72.77
2024-01-22T06:55:52.061Z,71.73
2024-01-22T06:58:19.023Z,72.02
2024-01-22T07:00:47.037Z,72.16
2024-01-22T07:03:13.923Z,72.53
2024-01-22T07:05:41.039Z,71.54
2024-01-22T07:08:07.854Z,71.62
2024-01-22T07:10:34.681Z,71.38
2024-01-22T07:13:04.659Z,72.04
2024-01-22T07:15:33.018Z,70.99
2024-01-22T07:18:00.249Z,71.73
2024-01-22T07:20:27.089Z,71.85
2024-01-22T07:22:54.966Z,71.00
2024-01-22T07:25:21.819Z,72.77
2024-01-22T07:27:48.490Z,72.12
2024-01-22T07:30:15.779Z,72.58
2024-01-22T07:32:45.120Z,72.09
2024-01-22T07:35:15.975Z,72.45
2024-01-22T07:37:48.560Z,71.97
2024-01-22T07:40:15.818Z,72.53
2024-01-22T07:42:43.285Z,71.72
2024-01-22T07:45:11.837Z,72.91
2024-01-22T07:47:40.581Z,71.64
2024-01-22T07:50:11.814Z,72.57
2024-01-22T07:52:39.257Z,71.82
2024-01-22T07:55:08.091Z,71.46
2024-01-22T07:57:35.385Z,72.45
2024-01-22T08:00:03.925Z,71.82
2024-01-22T08:02:31.988Z,71.22
2024-01-22T08:04:59.102Z,71.50
2024-01-22T08:07:25.924Z,72.07
2024-01-22T08:09:52.844Z,71.74
2024-01-22T08:12:19.725Z,70.93
2024-01-22T08:14:46.653Z,71.59
2024-01-22T08:17:13.921Z,71.68
2024-01-22T08:19:40.582Z,70.62
2024-01-22T08:22:07.238Z,71.33
2024-01-22T08:24:33.946Z,71.12
2024-01-22T08:27:01.713Z,69.74
2024-01-22T08:29:29.156Z,70.91
2024-01-22T08:31:56.238Z,71.16
2024-01-22T08:34:23.590Z,70.87
2024-01-22T08:36:51.839Z,70.28
2024-01-22T08:39:18.621Z,71.14
2024-01-22T08:41:45.516Z,70.29
2024-01-22T08:44:12.529Z,70.15
2024-01-22T08:46:39.124Z,69.65
2024-01-22T08:49:05.877Z,68.96
2024-01-22T08:51:32.714Z,69.46
2024-01-22T08:54:00.650Z,69.07
2024-01-22T08:56:27.405Z,69.07
2024-01-22T08:58:55.365Z,68.76
2024-01-22T09:01:22.060Z,67.71
2024-01-22T09:03:48.975Z,67.42
2024-01-22T09:06:16.111Z,66.89
2024-01-22T09:08:43.473Z,65.71
2024-01-22T09:11:11.932Z,64.96
2024-01-22T09:13:39.829Z,64.28
2024-01-22T09:16:07.218Z,65.03
2024-01-22T09:18:34.528Z,64.10
2024-01-22T09:21:04.311Z,63.37
2024-01-22T09:23:31.115Z,62.74
2024-01-22T09:25:57.747Z,62.94
2024-01-22T09:28:31.666Z,62.59
2024-01-22T09:30:59.842Z,60.39
2024-01-22T09:33:27.145Z,60.08
2024-01-22T09:35:56.316Z,60.30
2024-01-22T09:38:23.619Z,59.43
2024-01-22T09:40:51.935Z,58.18
2024-01-22T09:43:19.426Z,58.34
2024-01-22T09:45:49.621Z,59.12
2024-01-22T09:48:16.758Z,58.46
2024-01-22T09:50:43.578Z,60.09
2024-01-22T09:53:11.844Z,59.55
2024-01-22T09:55:43.807Z,60.26
2024-01-22T09:58:11.042Z,61.24
2024-01-22T10:00:40.941Z,60.34
2024-01-22T10:03:08.216Z,57.88
2024-01-22T10:05:35.728Z,58.81
2024-01-22T10:08:02.505Z,58.90
2024-01-22T10:10:29.270Z,57.04
2024-01-22T10:15:37.186Z,54.99
2024-01-22T10:20:48.154Z,54.50
2024-01-22T10:23:17.364Z,54.69
2024-01-22T10:25:45.773Z,55.05
2024-01-22T10:28:18.993Z,54.29
2024-01-22T10:30:47.601Z,53.53
2024-01-22T10:35:53.043Z,53.22
2024-01-22T10:38:20.834Z,51.10
2024-01-22T10:40:50.210Z,51.46
2024-01-22T10:46:00.572Z,52.77
2024-01-22T10:48:38.219Z,53.07
2024-01-22T10:51:11.469Z,53.38
2024-01-22T10:53:40.360Z,53.84
2024-01-22T10:56:29.453Z,54.75
2024-01-22T10:58:58.041Z,53.96
2024-01-22T11:01:26.493Z,54.15
2024-01-22T11:03:58.446Z,54.93
2024-01-22T11:06:29.230Z,55.18
2024-01-22T11:08:58.902Z,55.65
2024-01-22T11:11:28.560Z,55.34
2024-01-22T11:14:00.158Z,55.12
2024-01-22T11:16:27.176Z,55.79
2024-01-22T11:21:39.469Z,55.57
2024-01-22T11:27:02.109Z,57.00
2024-01-22T11:29:31.661Z,56.25
2024-01-22T11:31:58.615Z,57.07
2024-01-22T11:37:36.033Z,56.44
2024-01-22T11:40:08.327Z,55.39
2024-01-22T11:42:36.695Z,56.34
2024-01-22T11:45:11.935Z,56.67
2024-01-22T11:47:39.517Z,56.37
2024-01-22T11:50:08.825Z,56.84
2024-01-22T11:52:38.512Z,56.62
2024-01-22T11:55:09.233Z,56.45
2024-01-22T11:57:41.149Z,56.48
2024-01-22T12:00:12.414Z,57.16
2024-01-22T12:02:41.374Z,57.99
2024-01-22T12:05:21.103Z,57.38
2024-01-22T12:07:50.854Z,57.90
2024-01-22T12:10:27.709Z,58.12
2024-01-22T12:12:58.962Z,57.44
2024-01-22T12:15:28.593Z,58.25
2024-01-22T12:17:56.230Z,57.82
2024-01-22T12:20:23.985Z,58.18
2024-01-22T12:28:16.352Z,59.02
2024-01-22T12:30:46.218Z,59.60
2024-01-22T12:33:26.601Z,59.25
2024-01-22T12:36:11.746Z,60.54
2024-01-22T12:38:56.207Z,59.31
2024-01-22T12:41:24.398Z,59.24
2024-01-22T12:43:57.866Z,59.01
2024-01-22T12:46:24.876Z,59.18
2024-01-22T12:48:56.591Z,58.55
2024-01-22T12:51:26.956Z,58.43
2024-01-22T12:53:54.148Z,57.71
2024-01-22T12:56:20.983Z,57.95
2024-01-22T12:58:48.268Z,58.96
2024-01-22T13:01:15.682Z,59.02
2024-01-22T13:03:42.838Z,59.29
2024-01-22T13:06:10.307Z,58.31
2024-01-22T13:08:37.044Z,57.90
2024-01-22T13:11:03.968Z,57.77
2024-01-22T13:13:31.692Z,57.67
2024-01-22T13:16:12.546Z,58.24
2024-01-22T13:18:44.122Z,58.27
2024-01-22T13:21:12.245Z,57.04
2024-01-22T13:23:39.197Z,58.02
2024-01-22T13:26:06.540Z,57.77
2024-01-22T13:28:35.275Z,58.20
2024-01-22T13:31:02.268Z,58.65
2024-01-22T13:33:29.291Z,58.83
2024-01-22T13:35:56.201Z,58.81
2024-01-22T13:38:22.787Z,57.95
2024-01-22T13:40:50.777Z,58.86
2024-01-22T13:43:17.442Z,57.58
2024-01-22T13:45:44.196Z,56.45
2024-01-22T13:48:12.997Z,57.85
2024-01-22T13:50:44.551Z,56.37
2024-01-22T13:53:12.184Z,55.90
2024-01-22T13:55:39.004Z,57.35
2024-01-22T13:58:09.245Z,56.51
2024-01-22T14:00:36.344Z,56.84
2024-01-22T14:03:05.834Z,56.54
2024-01-22T14:05:32.712Z,56.72
2024-01-22T14:08:00.553Z,56.77
2024-01-22T14:10:27.632Z,56.91
2024-01-22T14:12:54.302Z,56.94
2024-01-22T14:15:23.030Z,56.32
2024-01-22T14:17:50.101Z,56.70
2024-01-22T14:20:17.142Z,56.44
2024-01-22T14:22:45.138Z,56.89
2024-01-22T14:25:12.814Z,56.13
2024-01-22T14:27:41.612Z,55.86
2024-01-22T14:30:08.768Z,56.57
2024-01-22T14:32:38.434Z,56.82
2024-01-22T14:35:06.761Z,57.12
2024-01-22T14:37:33.547Z,56.81
2024-01-22T14:40:00.573Z,56.74
2024-01-22T14:42:30.056Z,57.15
2024-01-22T14:44:56.896Z,57.17
2024-01-22T14:47:23.478Z,56.87
2024-01-22T14:49:50.665Z,57.17
2024-01-22T14:52:18.524Z,57.38
2024-01-22T14:54:45.754Z,57.75
2024-01-22T14:57:12.841Z,57.52
2024-01-22T14:59:42.077Z,57.43
2024-01-22T15:02:08.732Z,57.05
2024-01-22T15:04:35.472Z,57.78
2024-01-22T15:07:02.215Z,57.96
2024-01-22T15:09:28.870Z,59.15
2024-01-22T15:11:55.626Z,59.50
2024-01-22T15:14:23.479Z,58.91
2024-01-22T15:16:50.338Z,59.00
2024-01-22T15:19:17.202Z,59.37
2024-01-22T15:21:44.586Z,58.91
2024-01-22T15:24:15.054Z,59.14
2024-01-22T15:26:42.144Z,59.08
2024-01-22T15:29:09.029Z,58.97
2024-01-22T15:31:37.978Z,59.14
2024-01-22T15:34:06.258Z,59.48
2024-01-22T15:36:33.758Z,58.89
2024-01-22T15:39:02.227Z,59.22
2024-01-22T15:41:29.730Z,59.48
2024-01-22T15:43:56.964Z,59.49
2024-01-22T15:46:24.199Z,59.90
2024-01-22T15:48:51.299Z,59.86
2024-01-22T15:51:19.335Z,59.23
2024-01-22T15:53:47.426Z,59.93
2024-01-22T15:56:15.549Z,59.82
2024-01-22T15:58:42.242Z,59.95
2024-01-22T16:01:08.943Z,59.87
2024-01-22T16:03:37.909Z,60.55
2024-01-22T16:06:06.504Z,60.40
2024-01-22T16:08:33.810Z,60.78
2024-01-22T16:11:04.489Z,60.25
2024-01-22T16:13:31.802Z,60.67
2024-01-22T16:15:58.702Z,60.78
2024-01-22T16:18:25.500Z,61.45
2024-01-22T16:20:53.931Z,60.60
2024-01-22T16:23:22.397Z,60.34
2024-01-22T16:25:49.017Z,60.79
2024-01-22T16:28:15.769Z,60.50
2024-01-22T16:30:44.491Z,60.34
2024-01-22T16:33:13.707Z,60.71
2024-01-22T16:35:40.526Z,61.08
2024-01-22T16:38:07.598Z,61.32
2024-01-22T16:40:35.493Z,60.30
2024-01-22T16:43:04.156Z,60.54
2024-01-22T16:45:32.088Z,61.00
2024-01-22T16:47:58.876Z,60.46
2024-01-22T16:50:25.449Z,60.35
2024-01-22T16:52:55.002Z,61.19
2024-01-22T16:55:21.894Z,63.10
2024-01-22T16:57:50.446Z,64.83
2024-01-22T17:00:17.663Z,65.42
2024-01-22T17:02:44.527Z,65.81
2024-01-22T17:05:13.816Z,65.26
2024-01-22T17:07:41.668Z,65.62
2024-01-22T17:10:09.129Z,64.92
2024-01-22T17:12:36.214Z,66.52
2024-01-22T17:15:06.357Z,65.48
2024-01-22T17:17:33.184Z,66.56
2024-01-22T17:20:00.360Z,66.60
2024-01-22T17:22:28.863Z,65.57
2024-01-22T17:24:57.681Z,65.77
2024-01-22T17:27:25.788Z,65.98
2024-01-22T17:29:52.977Z,66.44
2024-01-22T17:32:20.739Z,66.70
2024-01-22T17:34:48.942Z,66.50
2024-01-22T17:37:16.064Z,66.24
2024-01-22T17:39:42.984Z,66.57
2024-01-22T17:42:10.098Z,66.00
2024-01-22T17:44:41.091Z,65.41
2024-01-22T17:47:08.008Z,65.79
2024-01-22T17:49:34.727Z,66.07
2024-01-22T17:52:01.686Z,66.38
2024-01-22T17:54:28.604Z,66.41
2024-01-22T17:56:57.418Z,66.37
2024-01-22T17:59:24.135Z,67.89
2024-01-22T18:01:52.199Z,66.33
2024-01-22T18:04:18.975Z,67.23
2024-01-22T18:06:45.922Z,67.88
2024-01-22T18:09:13.057Z,67.00
2024-01-22T18:11:45.611Z,67.54
2024-01-22T18:14:13.760Z,69.21
2024-01-22T18:16:41.023Z,69.04
2024-01-22T18:19:07.811Z,68.18
2024-01-22T18:21:34.673Z,67.79
2024-01-22T18:24:06.379Z,68.00
2024-01-22T18:26:33.692Z,69.05
2024-01-22T18:29:01.406Z,69.00
2024-01-22T18:31:30.170Z,68.16
2024-01-22T18:33:58.862Z,69.04
2024-01-22T18:36:25.627Z,69.82
2024-01-22T18:38:52.820Z,69.02
2024-01-22T18:41:22.183Z,70.13
2024-01-22T18:43:50.325Z,68.68
2024-01-22T18:46:23.558Z,69.66
2024-01-22T18:48:52.611Z,70.48
2024-01-22T18:51:21.368Z,68.72
2024-01-22T18:53:51.424Z,69.51
2024-01-22T18:56:18.916Z,69.46
2024-01-22T18:58:46.297Z,70.72
2024-01-22T19:01:16.246Z,70.39
2024-01-22T19:03:43.986Z,70.40
2024-01-22T19:06:11.625Z,69.47
2024-01-22T19:08:40.010Z,70.62
2024-01-22T19:11:08.403Z,70.64
2024-01-22T19:13:35.667Z,70.67
2024-01-22T19:16:04.069Z,71.58
2024-01-22T19:18:30.920Z,70.07
2024-01-22T19:20:57.698Z,70.74
2024-01-22T19:23:24.400Z,71.18
2024-01-22T19:25:52.360Z,70.84
2024-01-22T19:28:19.160Z,71.29
2024-01-22T19:30:45.913Z,69.52
2024-01-22T19:33:22.850Z,71.54
2024-01-22T19:35:49.668Z,70.19
2024-01-22T19:38:16.598Z,70.80
2024-01-22T19:40:43.371Z,69.74
2024-01-22T19:43:11.477Z,70.17
2024-01-22T19:45:39.419Z,70.69
2024-01-22T19:48:06.555Z,69.81
2024-01-22T19:50:33.450Z,68.92
2024-01-22T19:53:00.252Z,68.89
2024-01-22T19:55:26.992Z,69.86
2024-01-22T19:57:55.094Z,69.47
2024-01-22T20:00:23.286Z,69.20
2024-01-22T20:02:50.437Z,69.25
2024-01-22T20:05:17.219Z,68.52
2024-01-22T20:07:46.342Z,69.48
2024-01-22T20:10:13.296Z,69.10
2024-01-22T20:12:41.378Z,68.71
2024-01-22T20:15:09.896Z,68.89
2024-01-22T20:17:36.601Z,68.86
2024-01-22T20:20:03.707Z,69.03
2024-01-22T20:22:30.404Z,68.54
2024-01-22T20:24:57.216Z,68.81
2024-01-22T20:27:24.036Z,69.09
2024-01-22T20:29:51.388Z,67.83
2024-01-22T20:32:18.367Z,68.96
2024-01-22T20:34:46.464Z,68.31
2024-01-22T20:37:13.559Z,69.41
2024-01-22T20:39:40.284Z,67.98
2024-01-22T20:42:07.060Z,69.30
2024-01-22T20:44:35.149Z,68.56
2024-01-22T20:47:01.917Z,68.38
2024-01-22T20:49:28.835Z,68.39
2024-01-22T20:51:57.019Z,70.22
2024-01-22T20:54:24.692Z,69.47
2024-01-22T20:56:52.708Z,69.82
2024-01-22T20:59:20.658Z,68.79
2024-01-22T21:01:48.298Z,68.90
2024-01-22T21:04:16.281Z,69.67
2024-01-22T21:06:45.546Z,69.60
2024-01-22T21:09:17.157Z,70.05
2024-01-22T21:11:45.873Z,69.55
2024-01-22T21:14:16.312Z,70.13
2024-01-22T21:16:45.781Z,69.16
2024-01-22T21:19:14.050Z,69.84
2024-01-22T21:21:43.217Z,70.18
2024-01-22T21:24:11.163Z,70.76
2024-01-22T21:26:38.818Z,69.92
2024-01-22T21:29:06.516Z,69.75
2024-01-22T21:31:35.836Z,69.86
2024-01-22T21:34:03.654Z,70.34
2024-01-22T21:36:31.613Z,69.48
2024-01-22T21:39:00.666Z,69.87
2024-01-22T21:41:27.420Z,70.62
2024-01-22T21:43:54.166Z,70.64
2024-01-22T21:46:23.005Z,70.24
2024-01-22T21:48:50.606Z,69.51
2024-01-22T21:51:17.628Z,70.20
2024-01-22T21:53:45.768Z,69.55
2024-01-22T21:56:14.127Z,70.18
2024-01-22T21:58:41.163Z,70.11
2024-01-22T22:01:08.831Z,69.12
2024-01-22T22:03:36.236Z,69.81
2024-01-22T22:06:06.618Z,69.36
2024-01-22T22:08:35.606Z,69.28
2024-01-22T22:11:03.681Z,69.08
2024-01-22T22:13:30.796Z,69.60
2024-01-22T22:15:57.588Z,69.03
2024-01-22T22:18:25.014Z,68.90
2024-01-22T22:20:53.321Z,69.67
2024-01-22T22:23:20.245Z,68.60
2024-01-22T22:25:47.025Z,69.13
2024-01-22T22:28:13.771Z,69.50
2024-01-22T22:30:40.668Z,69.60
2024-01-22T22:33:09.980Z,69.19
2024-01-22T22:35:38.199Z,68.37
2024-01-22T22:38:04.923Z,68.37
2024-01-22T22:40:33.662Z,68.61
2024-01-22T22:43:01.569Z,68.08
2024-01-22T22:45:28.303Z,68.38
2024-01-22T22:47:55.186Z,68.46
2024-01-22T22:50:23.196Z,68.04
2024-01-22T22:52:49.803Z,69.05
2024-01-22T22:55:16.480Z,68.77
2024-01-22T22:57:43.440Z,67.99
2024-01-22T23:00:13.675Z,68.30
2024-01-22T23:02:40.793Z,68.34
2024-01-22T23:05:09.164Z,68.48
2024-01-22T23:07:37.245Z,68.50
2024-01-22T23:10:04.374Z,69.17
2024-01-22T23:12:31.234Z,69.04
2024-01-22T23:14:57.988Z,68.42
2024-01-22T23:17:24.594Z,68.94
2024-01-22T23:19:51.407Z,69.15
2024-01-22T23:22:18.199Z,68.88
2024-01-22T23:24:46.134Z,68.94
2024-01-22T23:27:12.841Z,68.39
2024-01-22T23:29:39.685Z,69.39
2024-01-22T23:32:06.619Z,68.61
2024-01-22T23:34:33.380Z,69.37
2024-01-22T23:37:00.210Z,68.74
2024-01-22T23:39:27.072Z,68.67
2024-01-22T23:41:53.810Z,70.09
2024-01-22T23:44:20.521Z,68.71
2024-01-22T23:46:47.137Z,69.28
2024-01-22T23:49:13.889Z,69.62
2024-01-22T23:51:40.635Z,69.55
2024-01-22T23:54:08.607Z,69.64
2024-01-22T23:56:35.425Z,69.74
2024-01-22T23:59:03.053Z,69.15
